Time;durP1;ratioP1;P1;durP2;ratioP2;P2;SDS_P1;SDS_P2;PMS_P1;PMS_P2;Temp;Humidity;BMP_temperature;BMP_pressure;BME280_temperature;BME280_humidity;BME280_pressure;Samples;Min_cycle;Max_cycle;Signal;HPM_P1;HPM_P2
2021/03/27 00:00:34;;;;;;;35.08;15.60;;;8.80;99.90;;;;;;5082147;28;20514;-72
2021/03/27 00:03:03;;;;;;;32.17;14.35;;;8.70;99.90;;;;;;5081939;28;20071;-72
2021/03/27 00:05:34;;;;;;;28.38;13.30;;;8.70;99.90;;;;;;5082423;28;20058;-72
2021/03/27 00:08:07;;;;;;;26.73;13.57;;;8.90;99.90;;;;;;5079675;28;20050;-72
2021/03/27 00:10:42;;;;;;;35.83;13.90;;;8.90;99.90;;;;;;5080601;28;20097;-72
2021/03/27 00:13:22;;;;;;;24.05;12.00;;;9.00;99.90;;;;;;5079654;28;20477;-72
2021/03/27 00:15:55;;;;;;;26.25;12.20;;;9.00;99.90;;;;;;5085652;28;20043;-72
2021/03/27 00:18:28;;;;;;;24.25;12.88;;;8.90;99.90;;;;;;5084203;28;20047;-72
2021/03/27 00:20:59;;;;;;;21.60;12.07;;;8.90;99.90;;;;;;5078944;28;20084;-72
2021/03/27 00:23:31;;;;;;;19.80;11.55;;;9.00;99.90;;;;;;5075427;28;20055;-70
2021/03/27 00:26:06;;;;;;;26.83;12.88;;;9.00;99.90;;;;;;5078094;28;20082;-72
2021/03/27 00:28:39;;;;;;;25.20;13.32;;;9.00;99.90;;;;;;5078283;28;20198;-74
2021/03/27 00:31:11;;;;;;;27.38;13.43;;;9.00;99.90;;;;;;5081217;28;20083;-73
2021/03/27 00:33:42;;;;;;;25.48;13.35;;;9.20;99.90;;;;;;5076785;28;20082;-72
2021/03/27 00:36:12;;;;;;;26.17;13.30;;;9.10;99.90;;;;;;5079177;28;20079;-74
2021/03/27 00:38:49;;;;;;;22.33;12.73;;;9.00;99.90;;;;;;5080395;28;20130;-69
2021/03/27 00:41:20;;;;;;;22.90;13.43;;;9.00;99.90;;;;;;5073574;28;20124;-71
2021/03/27 00:43:49;;;;;;;30.73;13.77;;;8.90;99.90;;;;;;5072954;28;20134;-72
2021/03/27 00:46:19;;;;;;;29.95;14.00;;;8.90;99.90;;;;;;5073970;28;20080;-71
2021/03/27 00:48:52;;;;;;;24.73;13.23;;;8.70;99.90;;;;;;5072770;28;20051;-71
2021/03/27 00:51:23;;;;;;;24.90;13.60;;;8.70;99.90;;;;;;5072579;28;20062;-72
2021/03/27 00:53:54;;;;;;;27.02;14.45;;;8.60;99.90;;;;;;5070553;28;20536;-71
2021/03/27 00:56:25;;;;;;;25.45;13.40;;;8.60;99.90;;;;;;5072932;28;20071;-71
2021/03/27 00:58:57;;;;;;;26.90;13.57;;;8.50;99.90;;;;;;5072997;28;20146;-71
2021/03/27 01:01:33;;;;;;;25.27;12.43;;;8.40;99.90;;;;;;5074748;28;20039;-71
2021/03/27 01:04:02;;;;;;;23.58;12.68;;;8.40;99.90;;;;;;5072748;28;20051;-71
2021/03/27 01:06:32;;;;;;;25.15;12.35;;;8.40;99.90;;;;;;5074316;28;20059;-71
2021/03/27 01:09:00;;;;;;;24.40;13.10;;;8.30;99.90;;;;;;5073602;28;20148;-72
2021/03/27 01:11:31;;;;;;;25.70;12.55;;;8.30;99.90;;;;;;5071910;28;20051;-71
2021/03/27 01:14:01;;;;;;;24.00;13.10;;;8.30;99.90;;;;;;5071938;28;20100;-71
2021/03/27 01:16:30;;;;;;;22.27;11.27;;;8.40;99.90;;;;;;5073223;28;20082;-71
2021/03/27 01:19:00;;;;;;;26.70;12.07;;;8.30;99.90;;;;;;5071692;28;20048;-71
2021/03/27 01:21:30;;;;;;;20.80;11.60;;;8.30;99.90;;;;;;5075877;28;20043;-71
2021/03/27 01:23:58;;;;;;;25.83;12.80;;;8.30;99.90;;;;;;5076374;28;20138;-71
2021/03/27 01:26:30;;;;;;;25.70;12.52;;;8.30;99.90;;;;;;5077379;28;20083;-71
2021/03/27 01:29:01;;;;;;;23.92;13.65;;;8.20;99.90;;;;;;5072377;28;20540;-71
2021/03/27 01:31:37;;;;;;;27.65;13.45;;;8.10;99.90;;;;;;5067491;28;20056;-71
2021/03/27 01:34:10;;;;;;;28.58;12.52;;;8.00;99.90;;;;;;5073557;28;20052;-71
2021/03/27 01:36:41;;;;;;;18.75;11.82;;;8.00;99.90;;;;;;5075413;28;20054;-72
2021/03/27 01:39:12;;;;;;;27.60;12.85;;;8.00;99.90;;;;;;5076061;28;20079;-71
2021/03/27 01:41:53;;;;;;;26.77;12.93;;;8.10;99.90;;;;;;5076703;28;20104;-71
2021/03/27 01:44:36;;;;;;;27.38;12.85;;;8.00;99.90;;;;;;5075446;28;20086;-71
2021/03/27 01:47:10;;;;;;;23.90;12.82;;;8.00;99.90;;;;;;5076449;28;20131;-71
2021/03/27 01:50:10;;;;;;;23.25;12.43;;;8.00;99.90;;;;;;5077954;28;21698;-71
2021/03/27 01:53:10;;;;;;;20.73;11.77;;;7.90;99.90;;;;;;5074567;28;20558;-71
2021/03/27 01:55:49;;;;;;;26.15;12.93;;;8.10;99.90;;;;;;5072621;28;20062;-71
2021/03/27 01:58:23;;;;;;;24.77;10.52;;;8.10;99.90;;;;;;5075414;28;20775;-71
2021/03/27 02:00:53;;;;;;;21.70;10.20;;;8.40;99.90;;;;;;5077997;28;20051;-71
2021/03/27 02:03:24;;;;;;;15.93;9.27;;;8.70;99.90;;;;;;5074115;28;20135;-71
2021/03/27 02:05:57;;;;;;;16.70;8.73;;;8.80;99.90;;;;;;5075350;28;20086;-72
2021/03/27 02:08:40;;;;;;;17.65;8.75;;;9.10;99.90;;;;;;5076684;28;20126;-71
2021/03/27 02:11:24;;;;;;;14.35;8.75;;;9.30;99.90;;;;;;5075272;28;20128;-71
2021/03/27 02:14:04;;;;;;;17.85;9.43;;;9.40;99.90;;;;;;5077960;28;20121;-71
2021/03/27 02:16:33;;;;;;;17.13;9.18;;;9.50;99.90;;;;;;5077877;28;20044;-71
2021/03/27 02:19:21;;;;;;;21.38;9.93;;;9.60;99.90;;;;;;5080431;28;20094;-71
2021/03/27 02:21:57;;;;;;;19.10;8.70;;;9.60;99.90;;;;;;5077963;28;20162;-71
2021/03/27 02:24:46;;;;;;;19.00;9.07;;;9.70;99.90;;;;;;5079062;28;20539;-71
2021/03/27 02:27:16;;;;;;;15.38;8.80;;;9.80;99.90;;;;;;5076323;28;20138;-71
2021/03/27 02:30:19;;;;;;;17.27;9.05;;;9.80;99.90;;;;;;5076852;28;20824;-71
2021/03/27 02:33:13;;;;;;;21.02;9.02;;;9.80;99.90;;;;;;5075114;28;20052;-71
2021/03/27 02:35:58;;;;;;;18.20;9.48;;;9.80;99.90;;;;;;5077762;28;20176;-71
2021/03/27 02:38:31;;;;;;;16.98;8.30;;;9.80;99.90;;;;;;5059409;28;20095;-71
2021/03/27 02:41:25;;;;;;;17.73;9.13;;;9.80;99.90;;;;;;5071655;28;20464;-72
2021/03/27 02:43:57;;;;;;;19.15;9.35;;;9.90;99.90;;;;;;5075048;28;20043;-71
2021/03/27 02:46:31;;;;;;;17.35;8.45;;;9.90;99.90;;;;;;5074141;28;20047;-71
2021/03/27 02:49:15;;;;;;;19.17;9.55;;;10.00;99.90;;;;;;5076280;28;20056;-71
2021/03/27 02:51:49;;;;;;;17.80;8.02;;;10.10;99.90;;;;;;5075048;28;21167;-71
2021/03/27 02:54:24;;;;;;;16.85;8.02;;;10.10;99.90;;;;;;5074885;28;20048;-71
2021/03/27 02:56:57;;;;;;;18.52;7.78;;;10.10;99.90;;;;;;5073644;28;20044;-71
2021/03/27 02:59:38;;;;;;;14.57;7.80;;;10.20;99.90;;;;;;5078264;28;20109;-71
2021/03/27 03:02:15;;;;;;;16.77;8.48;;;10.20;99.90;;;;;;5077159;28;20047;-71
2021/03/27 03:04:47;;;;;;;16.38;8.50;;;10.10;99.90;;;;;;5078202;28;20047;-72
2021/03/27 03:07:21;;;;;;;15.45;9.15;;;10.00;99.90;;;;;;5076816;28;20088;-72
2021/03/27 03:09:53;;;;;;;17.05;8.98;;;10.00;99.90;;;;;;5074757;28;20071;-71
2021/03/27 03:12:29;;;;;;;17.98;9.50;;;10.00;99.90;;;;;;5077761;28;20089;-72
2021/03/27 03:14:59;;;;;;;14.37;8.43;;;9.90;99.90;;;;;;5076875;28;20114;-72
2021/03/27 03:17:38;;;;;;;19.75;9.60;;;9.80;99.90;;;;;;5076700;28;20170;-71
2021/03/27 03:20:17;;;;;;;19.83;9.23;;;9.80;99.90;;;;;;5076107;28;20051;-71
2021/03/27 03:22:54;;;;;;;16.88;8.40;;;9.70;99.90;;;;;;5077773;28;20059;-70
2021/03/27 03:25:25;;;;;;;17.13;8.90;;;9.60;99.90;;;;;;5076147;28;20059;-71
2021/03/27 03:28:03;;;;;;;17.98;8.82;;;9.60;99.90;;;;;;5076784;28;20085;-71
2021/03/27 03:30:35;;;;;;;19.33;9.48;;;9.60;99.90;;;;;;5075972;28;20055;-71
2021/03/27 03:33:43;;;;;;;16.65;8.32;;;9.70;99.90;;;;;;5074118;28;20065;-71
2021/03/27 03:36:16;;;;;;;17.17;7.95;;;9.70;99.90;;;;;;5074610;28;20043;-71
2021/03/27 03:38:58;;;;;;;16.95;8.23;;;9.60;99.90;;;;;;5076074;28;20044;-71
2021/03/27 03:41:42;;;;;;;16.60;8.48;;;9.60;99.90;;;;;;5074745;28;20051;-71
2021/03/27 03:44:14;;;;;;;16.80;8.88;;;9.50;99.90;;;;;;5071763;28;20135;-71
2021/03/27 03:46:53;;;;;;;20.20;8.77;;;9.50;99.90;;;;;;5075618;28;20055;-71
2021/03/27 03:49:47;;;;;;;14.57;7.80;;;9.40;99.90;;;;;;5075388;28;20127;-72
2021/03/27 03:52:24;;;;;;;13.00;7.78;;;9.40;99.90;;;;;;5074368;28;20047;-71
2021/03/27 03:55:10;;;;;;;16.42;7.82;;;9.50;99.90;;;;;;5075282;28;20751;-72
2021/03/27 03:58:09;;;;;;;14.00;7.40;;;9.60;99.90;;;;;;5070373;28;20052;-71
2021/03/27 04:00:43;;;;;;;18.17;7.40;;;9.70;99.90;;;;;;5074402;28;20056;-71
2021/03/27 04:03:18;;;;;;;16.92;7.80;;;9.70;99.90;;;;;;5073384;28;20047;-72
2021/03/27 04:05:56;;;;;;;14.45;8.27;;;9.80;99.90;;;;;;5075669;28;20095;-71
2021/03/27 04:08:28;;;;;;;13.85;7.97;;;9.70;99.90;;;;;;5075021;28;20047;-71
2021/03/27 04:10:57;;;;;;;17.45;8.18;;;9.60;99.90;;;;;;5077584;28;20071;-71
2021/03/27 04:13:30;;;;;;;15.57;8.40;;;9.60;99.90;;;;;;5074822;28;20055;-71
2021/03/27 04:16:02;;;;;;;15.32;7.57;;;9.60;99.90;;;;;;5075745;28;20404;-71
2021/03/27 04:18:36;;;;;;;16.88;8.18;;;9.60;99.90;;;;;;5085563;28;20039;-71
2021/03/27 04:21:10;;;;;;;17.17;7.72;;;9.70;99.90;;;;;;5084969;28;20044;-71
2021/03/27 04:23:45;;;;;;;13.43;8.02;;;9.60;99.90;;;;;;5081679;28;20052;-71
2021/03/27 04:26:31;;;;;;;15.40;7.10;;;9.60;99.90;;;;;;5079308;28;20044;-71
2021/03/27 04:29:27;;;;;;;17.02;6.75;;;9.60;99.90;;;;;;5077786;28;20047;-71
2021/03/27 04:32:19;;;;;;;15.57;7.60;;;9.60;99.90;;;;;;5071967;28;20124;-71
2021/03/27 04:34:49;;;;;;;13.00;6.90;;;9.70;99.90;;;;;;5079174;28;20092;-71
2021/03/27 04:37:26;;;;;;;12.52;6.93;;;9.70;99.90;;;;;;5079430;28;20087;-71
2021/03/27 04:39:59;;;;;;;13.77;7.25;;;9.80;99.90;;;;;;5081765;28;20056;-71
2021/03/27 04:42:32;;;;;;;18.30;7.95;;;9.70;99.90;;;;;;5077568;28;20043;-71
2021/03/27 04:45:08;;;;;;;12.63;6.78;;;9.80;99.90;;;;;;5072284;28;20125;-71
2021/03/27 04:47:39;;;;;;;13.68;6.70;;;9.80;99.90;;;;;;5072852;28;20131;-71
2021/03/27 04:50:19;;;;;;;12.43;6.88;;;9.70;99.90;;;;;;5072925;28;20059;-71
2021/03/27 04:52:57;;;;;;;14.82;7.43;;;9.70;99.90;;;;;;5071311;28;20058;-71
2021/03/27 04:55:34;;;;;;;16.02;7.50;;;9.60;99.90;;;;;;5072793;28;20518;-71
2021/03/27 04:58:26;;;;;;;16.10;7.85;;;9.30;99.90;;;;;;5067909;28;20105;-72
2021/03/27 05:01:03;;;;;;;18.60;9.10;;;8.90;99.90;;;;;;5072034;28;20126;-72
2021/03/27 05:03:34;;;;;;;20.15;9.55;;;8.70;99.90;;;;;;5072894;28;20134;-72
2021/03/27 05:06:08;;;;;;;19.77;8.85;;;8.70;99.90;;;;;;5073301;28;20048;-71
2021/03/27 05:08:59;;;;;;;18.38;9.00;;;8.70;99.90;;;;;;5072949;28;20419;-71
2021/03/27 05:11:39;;;;;;;13.07;6.70;;;8.50;99.90;;;;;;5066345;28;20044;-71
2021/03/27 05:14:18;;;;;;;12.48;4.97;;;8.40;99.90;;;;;;5069900;28;20048;-71
2021/03/27 05:16:56;;;;;;;11.30;5.03;;;8.40;99.90;;;;;;5070988;28;20066;-71
2021/03/27 05:19:33;;;;;;;15.65;5.80;;;8.40;99.90;;;;;;5071601;28;20519;-71
2021/03/27 05:22:12;;;;;;;8.88;4.45;;;8.30;99.90;;;;;;5070589;28;20174;-71
2021/03/27 05:25:06;;;;;;;8.98;4.28;;;8.30;99.90;;;;;;5073668;28;20048;-71
2021/03/27 05:27:41;;;;;;;8.82;4.20;;;8.30;99.90;;;;;;5076598;28;20427;-72
2021/03/27 05:30:24;;;;;;;8.57;3.55;;;8.40;99.90;;;;;;5071443;28;20055;-71
2021/03/27 05:33:36;;;;;;;8.25;3.50;;;8.30;99.90;;;;;;5069960;28;21754;-71
2021/03/27 05:36:23;;;;;;;8.05;3.90;;;8.30;99.90;;;;;;5071205;28;20044;-71
2021/03/27 05:38:53;;;;;;;;;;;8.30;99.90;;;;;;5073310;28;20044;-72
2021/03/27 05:42:03;;;;;;;10.40;4.13;;;8.30;99.90;;;;;;5070748;28;20591;-72
2021/03/27 05:44:59;;;;;;;9.15;4.65;;;8.30;99.90;;;;;;5070067;28;20110;-71
2021/03/27 05:48:07;;;;;;;11.20;5.80;;;8.40;99.90;;;;;;5071030;28;20051;-71
2021/03/27 05:51:19;;;;;;;12.82;6.10;;;8.40;99.90;;;;;;5070978;28;20044;-72
2021/03/27 05:54:10;;;;;;;11.52;6.13;;;8.50;99.90;;;;;;5068936;28;20557;-72
2021/03/27 05:57:09;;;;;;;12.10;6.15;;;8.50;99.90;;;;;;5070821;28;20057;-72
2021/03/27 05:59:53;;;;;;;11.63;4.50;;;8.60;99.90;;;;;;5066767;28;20329;-72
2021/03/27 06:02:38;;;;;;;11.77;6.03;;;8.60;99.90;;;;;;5069414;28;20109;-72
2021/03/27 06:05:27;;;;;;;12.18;5.97;;;8.60;99.90;;;;;;5070987;28;20048;-72
2021/03/27 06:08:29;;;;;;;11.27;6.07;;;8.60;99.90;;;;;;5074280;28;20617;-72
2021/03/27 06:11:04;;;;;;;11.43;5.43;;;8.70;99.90;;;;;;5069083;28;20047;-72
2021/03/27 06:13:51;;;;;;;12.80;5.60;;;8.70;99.90;;;;;;5073086;28;20052;-72
2021/03/27 06:16:36;;;;;;;12.80;6.35;;;8.70;99.90;;;;;;5072824;28;20102;-72
2021/03/27 06:19:44;;;;;;;10.80;5.75;;;8.80;99.90;;;;;;5073977;28;20083;-72
2021/03/27 06:22:23;;;;;;;9.20;5.07;;;8.90;99.90;;;;;;5041074;28;20495;-72
2021/03/27 06:24:58;;;;;;;10.55;5.10;;;8.90;99.90;;;;;;5075866;28;20412;-73
2021/03/27 06:27:33;;;;;;;10.52;4.85;;;8.80;99.90;;;;;;5074786;28;20135;-72
2021/03/27 06:30:21;;;;;;;9.35;4.15;;;8.90;99.90;;;;;;5076148;28;20059;-72
2021/03/27 06:33:33;;;;;;;10.77;5.32;;;8.90;99.90;;;;;;5073697;28;20051;-72
2021/03/27 06:36:22;;;;;;;11.30;5.20;;;8.80;99.90;;;;;;5074519;28;20138;-71
2021/03/27 06:39:34;;;;;;;8.57;4.50;;;8.90;99.90;;;;;;5073718;28;20126;-71
2021/03/27 06:42:37;;;;;;;9.48;4.78;;;8.80;99.90;;;;;;5074763;28;20071;-71
2021/03/27 06:45:35;;;;;;;6.57;2.83;;;8.80;99.90;;;;;;5074878;28;20469;-71
2021/03/27 06:48:41;;;;;;;6.28;2.10;;;8.60;99.90;;;;;;5075239;28;20063;-71
2021/03/27 06:51:44;;;;;;;3.90;1.50;;;8.30;99.90;;;;;;5073970;28;20047;-71
2021/03/27 06:54:54;;;;;;;2.47;0.90;;;8.20;99.90;;;;;;5061837;28;20054;-71
2021/03/27 06:57:46;;;;;;;1.73;1.00;;;7.90;99.90;;;;;;5073936;28;20055;-71
2021/03/27 07:00:45;;;;;;;1.35;0.70;;;8.00;99.90;;;;;;5072059;28;20047;-71
2021/03/27 07:03:51;;;;;;;2.47;0.57;;;7.90;99.90;;;;;;5073790;28;20051;-70
2021/03/27 07:07:03;;;;;;;0.73;0.43;;;7.80;99.90;;;;;;5073343;28;20091;-70
2021/03/27 07:10:14;;;;;;;1.48;0.40;;;7.70;99.90;;;;;;5056280;28;20051;-69
2021/03/27 07:12:55;;;;;;;1.93;0.50;;;7.60;99.90;;;;;;5074986;28;20043;-69
2021/03/27 07:15:57;;;;;;;1.97;0.60;;;7.40;99.90;;;;;;5081817;28;20043;-71
2021/03/27 07:19:05;;;;;;;1.47;0.50;;;7.40;99.90;;;;;;5084552;28;20052;-69
2021/03/27 07:22:03;;;;;;;1.60;0.47;;;7.40;99.90;;;;;;5085679;28;20093;-70
2021/03/27 07:25:23;;;;;;;2.73;0.67;;;7.40;99.90;;;;;;5041863;28;20046;-70
2021/03/27 07:28:01;;;;;;;4.90;0.60;;;7.50;99.90;;;;;;5019854;28;20049;-71
2021/03/27 07:30:50;;;;;;;0.83;0.50;;;7.60;99.90;;;;;;5082151;28;20067;-71
2021/03/27 07:33:50;;;;;;;2.33;0.50;;;7.70;99.90;;;;;;5080690;28;20078;-71
2021/03/27 07:37:01;;;;;;;2.30;0.70;;;7.70;99.90;;;;;;5081202;28;20496;-71
2021/03/27 07:40:03;;;;;;;1.93;0.50;;;7.80;99.90;;;;;;5091050;28;20040;-71
2021/03/27 07:42:56;;;;;;;1.05;0.30;;;8.00;99.90;;;;;;5087345;28;20135;-71
2021/03/27 07:45:40;;;;;;;1.60;0.68;;;8.10;99.90;;;;;;5083903;28;20077;-71
2021/03/27 07:48:44;;;;;;;0.38;0.30;;;7.90;99.90;;;;;;5086452;28;20043;-71
2021/03/27 07:51:50;;;;;;;0.57;0.30;;;7.70;99.90;;;;;;5082779;28;20124;-71
2021/03/27 07:54:58;;;;;;;3.00;0.63;;;7.90;99.90;;;;;;5088595;28;20079;-72
2021/03/27 07:57:54;;;;;;;2.07;0.30;;;7.90;99.90;;;;;;5087539;28;20474;-71
2021/03/27 08:00:58;;;;;;;0.30;0.20;;;8.00;99.90;;;;;;5088170;28;20051;-71
2021/03/27 08:03:38;;;;;;;1.60;0.30;;;8.10;99.90;;;;;;5060407;28;20063;-72
2021/03/27 08:06:16;;;;;;;1.15;0.40;;;8.10;99.90;;;;;;5087211;28;20088;-72
2021/03/27 08:09:08;;;;;;;1.38;0.50;;;8.20;99.90;;;;;;5089999;28;20043;-72
2021/03/27 08:12:08;;;;;;;0.88;0.50;;;8.30;99.90;;;;;;5088189;28;20047;-72
2021/03/27 08:15:05;;;;;;;1.25;0.50;;;8.40;99.90;;;;;;5086758;28;20086;-71
2021/03/27 08:17:48;;;;;;;2.03;0.40;;;8.60;99.90;;;;;;5063953;28;20050;-71
2021/03/27 08:20:47;;;;;;;2.60;0.55;;;8.70;99.90;;;;;;5082696;28;20491;-71
2021/03/27 08:23:46;;;;;;;0.98;0.45;;;8.70;99.90;;;;;;5088841;28;20129;-72
2021/03/27 08:26:50;;;;;;;1.38;0.38;;;8.60;99.90;;;;;;5083087;28;20048;-71
2021/03/27 08:29:53;;;;;;;1.52;0.35;;;8.60;99.90;;;;;;5081407;28;20048;-71
2021/03/27 08:33:05;;;;;;;0.82;0.50;;;8.40;99.90;;;;;;5081740;28;20104;-71
2021/03/27 08:36:01;;;;;;;0.68;0.28;;;8.70;99.90;;;;;;5082666;28;20048;-71
2021/03/27 08:38:55;;;;;;;5.45;0.40;;;9.20;99.90;;;;;;5083422;28;20674;-71
2021/03/27 08:41:37;;;;;;;1.25;0.40;;;9.60;99.90;;;;;;5077845;28;20177;-72
2021/03/27 08:44:55;;;;;;;0.90;0.50;;;9.10;99.90;;;;;;5083327;28;20086;-71
2021/03/27 08:47:47;;;;;;;1.85;0.40;;;9.00;99.90;;;;;;5010170;28;20057;-71
2021/03/27 08:50:52;;;;;;;2.83;0.50;;;8.90;99.90;;;;;;5012220;28;21200;-71
2021/03/27 08:53:51;;;;;;;1.38;0.20;;;9.10;99.90;;;;;;5066940;28;20096;-71
2021/03/27 08:56:48;;;;;;;1.20;0.38;;;9.30;99.90;;;;;;5083431;28;20090;-71
2021/03/27 08:59:31;;;;;;;1.38;0.40;;;9.80;99.90;;;;;;5084668;28;20051;-71
2021/03/27 09:02:18;;;;;;;1.38;0.40;;;9.30;99.90;;;;;;5077474;28;20083;-71
2021/03/27 09:05:02;;;;;;;4.72;1.15;;;9.10;99.90;;;;;;5083231;28;20134;-71
2021/03/27 09:07:44;;;;;;;2.47;0.52;;;9.00;99.90;;;;;;5084496;28;20051;-71
2021/03/27 09:10:39;;;;;;;3.25;0.50;;;9.10;99.90;;;;;;5084467;28;20047;-71
2021/03/27 09:13:41;;;;;;;2.45;0.38;;;9.00;99.90;;;;;;5081693;28;20059;-71
2021/03/27 09:16:50;;;;;;;3.92;0.40;;;9.30;99.90;;;;;;5083501;28;20059;-71
2021/03/27 09:19:35;;;;;;;1.10;0.60;;;9.50;99.90;;;;;;5046982;28;20052;-71
2021/03/27 09:22:50;;;;;;;1.60;0.70;;;10.30;99.90;;;;;;5082741;28;20055;-71
2021/03/27 09:25:31;;;;;;;1.02;0.43;;;10.80;99.90;;;;;;5087495;28;20468;-71
2021/03/27 09:28:25;;;;;;;1.80;0.60;;;9.80;99.90;;;;;;5086324;28;20087;-71
2021/03/27 09:31:05;;;;;;;2.78;0.80;;;11.40;99.90;;;;;;5086111;28;20059;-71
2021/03/27 09:33:37;;;;;;;3.05;0.90;;;12.40;99.90;;;;;;5087393;28;20055;-71
2021/03/27 09:36:19;;;;;;;1.83;0.90;;;13.60;99.90;;;;;;5088234;28;20267;-71
2021/03/27 09:38:58;;;;;;;1.08;0.57;;;14.20;99.90;;;;;;5087361;28;20632;-71
2021/03/27 09:42:02;;;;;;;3.33;0.93;;;14.60;99.90;;;;;;5092605;28;20093;-71
2021/03/27 09:45:10;;;;;;;1.73;0.90;;;13.50;99.90;;;;;;5088389;28;20409;-72
2021/03/27 09:48:13;;;;;;;2.90;0.98;;;12.90;99.90;;;;;;5092309;28;20305;-71
2021/03/27 09:50:50;;;;;;;2.22;0.98;;;13.00;99.90;;;;;;5092602;28;20048;-72
2021/03/27 09:53:35;;;;;;;4.43;1.17;;;12.60;99.90;;;;;;5089761;28;20047;-71
2021/03/27 09:56:07;;;;;;;3.38;1.13;;;12.10;99.90;;;;;;5092350;28;20101;-72
2021/03/27 09:59:00;;;;;;;4.30;1.48;;;11.60;99.90;;;;;;5093406;28;20079;-72
2021/03/27 10:01:32;;;;;;;4.43;1.00;;;11.20;99.90;;;;;;5074786;28;20047;-71
2021/03/27 10:04:12;;;;;;;4.38;1.25;;;10.60;99.90;;;;;;5089267;28;20077;-72
2021/03/27 10:06:49;;;;;;;3.88;1.02;;;10.50;99.90;;;;;;5091394;28;20415;-72
2021/03/27 10:09:29;;;;;;;;;;;10.90;99.90;;;;;;5093263;28;20047;-71
2021/03/27 10:12:01;;;;;;;3.35;1.30;;;10.90;99.90;;;;;;5093162;28;19921;-72
2021/03/27 10:14:34;;;;;;;5.15;1.85;;;12.00;99.90;;;;;;5090397;28;20047;-72
2021/03/27 10:17:07;;;;;;;4.25;1.40;;;13.20;99.90;;;;;;5090863;28;20104;-72
2021/03/27 10:19:50;;;;;;;2.28;0.82;;;14.00;99.90;;;;;;5091522;28;20043;-72
2021/03/27 10:22:25;;;;;;;3.15;1.20;;;15.00;99.90;;;;;;5087290;28;20105;-72
2021/03/27 10:25:00;;;;;;;3.13;1.30;;;15.20;96.30;;;;;;5084874;28;20047;-71
2021/03/27 10:27:37;;;;;;;4.53;1.30;;;14.40;97.30;;;;;;5085577;28;20071;-72
2021/03/27 10:30:18;;;;;;;9.20;1.38;;;14.00;94.60;;;;;;5085486;28;20063;-71
2021/03/27 10:33:02;;;;;;;2.85;1.20;;;14.10;94.40;;;;;;5085981;28;20130;-72
2021/03/27 10:36:15;;;;;;;6.45;1.40;;;13.00;95.60;;;;;;5087295;28;20085;-71
2021/03/27 10:39:02;;;;;;;4.03;1.50;;;14.10;97.10;;;;;;5086624;28;20515;-71
2021/03/27 10:41:44;;;;;;;3.30;1.27;;;14.50;95.80;;;;;;5087542;28;20231;-72
2021/03/27 10:44:18;;;;;;;2.47;0.80;;;15.10;92.50;;;;;;5084689;28;20083;-72
2021/03/27 10:46:50;;;;;;;3.13;1.27;;;14.10;91.40;;;;;;5085311;28;20574;-72
2021/03/27 10:49:39;;;;;;;6.18;1.50;;;13.50;94.10;;;;;;5085845;28;20578;-72
2021/03/27 10:52:38;;;;;;;4.57;1.10;;;12.20;93.00;;;;;;5085948;28;20060;-72
2021/03/27 10:55:56;;;;;;;3.17;1.20;;;12.00;94.10;;;;;;5085388;28;20055;-72
2021/03/27 10:58:47;;;;;;;3.83;1.00;;;13.80;95.90;;;;;;5084256;28;20046;-71
2021/03/27 11:01:55;;;;;;;1.25;0.60;;;14.20;91.40;;;;;;5077573;28;20058;-72
2021/03/27 11:04:33;;;;;;;;;;;14.10;90.30;;;;;;5082767;28;20065;-71
2021/03/27 11:07:32;;;;;;;2.28;0.90;;;13.50;91.10;;;;;;5084246;28;19931;-72
2021/03/27 11:10:51;;;;;;;2.17;1.00;;;14.10;91.80;;;;;;5085276;28;20055;-72
2021/03/27 11:13:42;;;;;;;4.93;1.20;;;13.90;92.90;;;;;;5083225;28;20461;-72
2021/03/27 11:16:38;;;;;;;3.08;1.10;;;14.30;93.10;;;;;;5085955;28;20055;-72
2021/03/27 11:19:36;;;;;;;1.88;0.73;;;13.50;91.40;;;;;;5060089;28;20055;-72
2021/03/27 11:22:29;;;;;;;2.60;1.05;;;13.30;89.10;;;;;;5084754;28;20054;-72
2021/03/27 11:25:18;;;;;;;3.13;1.08;;;12.70;92.90;;;;;;5085749;28;20420;-72
2021/03/27 11:27:59;;;;;;;2.65;1.10;;;12.30;90.50;;;;;;5085661;28;20055;-72
2021/03/27 11:30:36;;;;;;;2.53;1.20;;;11.80;91.30;;;;;;5083518;28;20047;-72
2021/03/27 11:33:05;;;;;;;;;;;13.30;92.10;;;;;;5084746;28;20050;-72
2021/03/27 11:35:39;;;;;;;6.70;0.90;;;13.10;90.10;;;;;;5087023;28;19930;-72
2021/03/27 11:38:19;;;;;;;2.13;0.98;;;13.20;90.90;;;;;;5088857;28;20047;-71
2021/03/27 11:40:56;;;;;;;3.55;1.10;;;12.90;90.40;;;;;;5081339;28;20047;-71
2021/03/27 11:43:57;;;;;;;3.05;0.98;;;12.80;93.70;;;;;;5075471;28;20050;-71
2021/03/27 11:46:28;;;;;;;3.00;1.30;;;12.10;92.00;;;;;;5085700;28;20078;-71
2021/03/27 11:49:05;;;;;;;4.90;1.40;;;11.80;92.80;;;;;;5077019;28;20500;-71
2021/03/27 11:51:41;;;;;;;4.70;1.10;;;11.30;94.50;;;;;;5080926;28;20054;-71
2021/03/27 11:54:21;;;;;;;5.60;1.08;;;11.20;91.90;;;;;;5079195;28;20083;-71
2021/03/27 11:56:54;;;;;;;3.97;0.80;;;11.30;92.40;;;;;;5079328;28;20078;-71
2021/03/27 12:00:47;;;;;;;2.45;0.90;;;11.70;92.20;;;;;;5079442;28;20050;-71
2021/03/27 12:02:53;;;;;;;5.85;1.08;;;11.70;91.40;;;;;;5075903;28;20559;-71
2021/03/27 12:05:26;;;;;;;3.42;1.10;;;12.40;93.30;;;;;;5076501;28;20189;-71
2021/03/27 12:08:04;;;;;;;5.00;1.10;;;12.90;91.30;;;;;;5078530;28;20059;-71
2021/03/27 12:10:38;;;;;;;2.92;1.20;;;12.70;91.10;;;;;;5079347;28;20052;-71
2021/03/27 12:13:12;;;;;;;2.25;0.70;;;12.40;91.30;;;;;;5076092;28;20063;-71
2021/03/27 12:15:48;;;;;;;6.63;1.30;;;12.30;91.10;;;;;;5076588;28;20131;-71
2021/03/27 12:18:28;;;;;;;6.20;1.33;;;11.90;91.10;;;;;;5076568;28;20069;-71
2021/03/27 12:21:03;;;;;;;4.25;0.85;;;11.80;91.50;;;;;;5077181;28;20051;-71
2021/03/27 12:23:39;;;;;;;2.65;1.02;;;11.80;91.20;;;;;;5078507;28;20084;-71
2021/03/27 12:26:19;;;;;;;3.72;0.80;;;11.50;91.30;;;;;;5080160;28;20901;-72
2021/03/27 12:28:57;;;;;;;4.55;1.05;;;11.40;90.70;;;;;;5081400;28;20055;-71
2021/03/27 12:31:38;;;;;;;3.30;0.88;;;11.10;91.70;;;;;;5078850;28;20051;-71
2021/03/27 12:34:15;;;;;;;2.25;0.80;;;10.70;92.30;;;;;;5077677;28;20051;-71
2021/03/27 12:36:54;;;;;;;7.15;1.25;;;10.60;92.20;;;;;;5076167;28;20051;-71
2021/03/27 12:39:32;;;;;;;5.53;1.13;;;11.40;92.00;;;;;;5078926;28;20483;-71
2021/03/27 12:42:05;;;;;;;1.60;0.60;;;12.00;91.30;;;;;;5077770;28;20594;-71
2021/03/27 12:44:35;;;;;;;8.77;0.95;;;11.50;89.80;;;;;;5079173;28;20048;-67
2021/03/27 12:47:32;;;;;;;2.95;0.90;;;11.50;91.00;;;;;;5078172;28;20499;-67
2021/03/27 12:50:23;;;;;;;2.58;0.70;;;11.30;87.90;;;;;;5079250;28;20101;-67
2021/03/27 12:53:05;;;;;;;4.38;1.17;;;11.40;89.90;;;;;;5077536;28;20050;-67
2021/03/27 12:55:41;;;;;;;5.00;0.90;;;11.30;87.40;;;;;;5073429;28;20056;-67
2021/03/27 12:58:34;;;;;;;3.00;0.70;;;11.20;90.30;;;;;;5073218;28;20450;-67
2021/03/27 13:01:21;;;;;;;2.33;0.70;;;11.10;90.70;;;;;;5081943;28;20059;-67
2021/03/27 13:04:18;;;;;;;5.22;0.98;;;11.00;91.80;;;;;;5077743;28;20044;-67
2021/03/27 13:06:55;;;;;;;4.60;1.20;;;11.00;93.60;;;;;;5073798;28;20051;-67
2021/03/27 13:09:57;;;;;;;3.70;0.98;;;11.80;94.10;;;;;;5073991;28;20274;-67
2021/03/27 13:12:34;;;;;;;5.70;1.55;;;12.40;92.40;;;;;;5077809;28;20048;-67
2021/03/27 13:15:30;;;;;;;3.35;0.80;;;12.80;91.80;;;;;;5082969;28;20435;-67
2021/03/27 13:18:22;;;;;;;3.90;1.00;;;13.20;93.00;;;;;;5085627;28;20055;-67
2021/03/27 13:20:54;;;;;;;4.05;0.85;;;12.70;91.90;;;;;;5084887;28;20082;-67
2021/03/27 13:23:23;;;;;;;2.95;1.08;;;13.00;93.00;;;;;;5085220;28;20083;-67
2021/03/27 13:25:54;;;;;;;6.47;0.90;;;13.20;92.70;;;;;;5087199;28;20069;-67
2021/03/27 13:28:27;;;;;;;4.22;0.88;;;12.80;93.30;;;;;;5089603;28;20043;-68
2021/03/27 13:30:59;;;;;;;2.00;0.68;;;12.20;92.90;;;;;;5091219;28;20362;-67
2021/03/27 13:33:30;;;;;;;2.08;0.80;;;11.20;92.60;;;;;;5090698;28;20048;-67
2021/03/27 13:36:07;;;;;;;6.82;0.73;;;11.10;92.80;;;;;;5087180;28;20408;-67
2021/03/27 13:38:41;;;;;;;5.85;0.82;;;11.00;91.70;;;;;;5085614;28;20043;-67
2021/03/27 13:41:15;;;;;;;4.03;0.80;;;11.10;91.70;;;;;;5086152;28;20136;-67
2021/03/27 13:43:51;;;;;;;2.60;0.88;;;11.50;92.00;;;;;;5086620;28;20051;-67
2021/03/27 13:46:22;;;;;;;1.02;0.40;;;11.70;90.10;;;;;;5088999;28;20959;-67
2021/03/27 13:48:53;;;;;;;2.80;0.68;;;11.70;90.10;;;;;;5072247;28;20066;-67
2021/03/27 13:51:25;;;;;;;4.40;0.80;;;11.90;89.00;;;;;;5081224;28;20074;-67
2021/03/27 13:54:19;;;;;;;2.58;0.93;;;12.40;89.20;;;;;;5087032;28;20169;-68
2021/03/27 13:56:52;;;;;;;7.60;0.93;;;12.00;85.70;;;;;;5084815;28;20415;-67
2021/03/27 13:59:55;;;;;;;4.15;1.15;;;11.70;86.90;;;;;;5085484;28;20533;-67
2021/03/27 14:03:00;;;;;;;3.83;1.45;;;11.50;86.80;;;;;;5085648;28;20454;-67
2021/03/27 14:05:43;;;;;;;4.60;1.40;;;11.80;89.80;;;;;;5087116;28;20996;-67
2021/03/27 14:08:30;;;;;;;3.80;1.00;;;11.50;90.50;;;;;;5085363;28;20163;-67
2021/03/27 14:11:02;;;;;;;2.20;0.60;;;11.00;91.30;;;;;;5085385;28;20075;-67
2021/03/27 14:13:36;;;;;;;4.28;0.90;;;11.20;91.50;;;;;;5083892;28;20666;-67